Weather at Amílcar Cabral International Airport

Public forecast

Using degrees Celsius for public forecast. Weather courtesy of forecast.io.

Current aviation weather report (METAR) for Amílcar Cabral International Airport

Retrieved 2020/10/31 18:00 UTC (53 minutes ago):

GVAC 311800Z 04015KT 9999 BKN014 SCT200 26/20 Q1014 NOSIG

Aviation forecast (TAF) for Amílcar Cabral International Airport

Retrieved 2020/10/31 18:00 UTC (53 minutes ago):

TAF GVAC 311700Z 3118/0124 04020KT 9999 SCT014 PROB40 TEMPO 0111/0117 05020G30KT